sensor_id;sensor_type;location;lat;lon;timestamp;temperature;humidity
22781;DHT22;11557;50.884;4.322;2022-08-18T00:00:21;20.80;99.90
22781;DHT22;11557;50.884;4.322;2022-08-18T00:02:55;20.70;99.90
22781;DHT22;11557;50.884;4.322;2022-08-18T00:05:23;21.00;99.90
22781;DHT22;11557;50.884;4.322;2022-08-18T00:08:12;21.00;99.90
22781;DHT22;11557;50.884;4.322;2022-08-18T00:10:57;21.10;99.90
22781;DHT22;11557;50.884;4.322;2022-08-18T00:13:39;21.20;99.90
22781;DHT22;11557;50.884;4.322;2022-08-18T00:16:27;21.10;99.90
22781;DHT22;11557;50.884;4.322;2022-08-18T00:18:56;21.20;99.90
22781;DHT22;11557;50.884;4.322;2022-08-18T00:21:45;21.20;99.90
22781;DHT22;11557;50.884;4.322;2022-08-18T00:24:21;21.40;99.90
22781;DHT22;11557;50.884;4.322;2022-08-18T00:26:46;21.40;99.90
22781;DHT22;11557;50.884;4.322;2022-08-18T00:29:13;21.60;99.90
22781;DHT22;11557;50.884;4.322;2022-08-18T00:31:38;21.50;99.90
22781;DHT22;11557;50.884;4.322;2022-08-18T00:34:10;21.60;99.90
22781;DHT22;11557;50.884;4.322;2022-08-18T00:36:42;21.60;99.90
22781;DHT22;11557;50.884;4.322;2022-08-18T00:39:08;21.70;99.90
22781;DHT22;11557;50.884;4.322;2022-08-18T00:41:56;21.80;99.90
22781;DHT22;11557;50.884;4.322;2022-08-18T00:44:23;21.70;99.90
22781;DHT22;11557;50.884;4.322;2022-08-18T00:46:48;21.80;99.90
22781;DHT22;11557;50.884;4.322;2022-08-18T00:49:14;21.80;99.90
22781;DHT22;11557;50.884;4.322;2022-08-18T00:51:51;21.80;99.90
22781;DHT22;11557;50.884;4.322;2022-08-18T00:54:27;21.80;99.90
22781;DHT22;11557;50.884;4.322;2022-08-18T00:56:57;21.80;99.90
22781;DHT22;11557;50.884;4.322;2022-08-18T00:59:29;21.90;99.90
22781;DHT22;11557;50.884;4.322;2022-08-18T01:01:58;21.80;99.90
22781;DHT22;11557;50.884;4.322;2022-08-18T01:04:45;21.90;99.90
22781;DHT22;11557;50.884;4.322;2022-08-18T01:07:18;21.90;99.90
22781;DHT22;11557;50.884;4.322;2022-08-18T01:09:48;21.80;99.90
22781;DHT22;11557;50.884;4.322;2022-08-18T01:12:14;21.80;99.90
22781;DHT22;11557;50.884;4.322;2022-08-18T01:14:42;21.80;99.90
22781;DHT22;11557;50.884;4.322;2022-08-18T01:17:09;21.90;99.90
22781;DHT22;11557;50.884;4.322;2022-08-18T01:19:55;21.90;99.90
22781;DHT22;11557;50.884;4.322;2022-08-18T01:25:12;21.80;99.90
22781;DHT22;11557;50.884;4.322;2022-08-18T01:28:07;21.90;99.90
22781;DHT22;11557;50.884;4.322;2022-08-18T01:30:52;21.80;99.90
22781;DHT22;11557;50.884;4.322;2022-08-18T01:33:24;21.80;99.90
22781;DHT22;11557;50.884;4.322;2022-08-18T01:36:11;21.90;99.90
22781;DHT22;11557;50.884;4.322;2022-08-18T01:38:51;21.90;99.90
22781;DHT22;11557;50.884;4.322;2022-08-18T01:41:19;21.90;99.90
22781;DHT22;11557;50.884;4.322;2022-08-18T01:43:47;21.90;99.90
22781;DHT22;11557;50.884;4.322;2022-08-18T01:46:16;21.90;99.90
22781;DHT22;11557;50.884;4.322;2022-08-18T01:48:45;21.90;99.90
22781;DHT22;11557;50.884;4.322;2022-08-18T01:51:12;22.00;99.90
22781;DHT22;11557;50.884;4.322;2022-08-18T01:53:38;22.00;99.90
22781;DHT22;11557;50.884;4.322;2022-08-18T01:56:05;22.00;99.90
22781;DHT22;11557;50.884;4.322;2022-08-18T01:58:35;22.00;99.90
22781;DHT22;11557;50.884;4.322;2022-08-18T02:01:04;21.90;99.90
22781;DHT22;11557;50.884;4.322;2022-08-18T02:03:45;22.00;99.90
22781;DHT22;11557;50.884;4.322;2022-08-18T02:06:14;22.00;99.90
22781;DHT22;11557;50.884;4.322;2022-08-18T02:09:02;21.80;99.90
22781;DHT22;11557;50.884;4.322;2022-08-18T02:11:50;21.70;99.90
22781;DHT22;11557;50.884;4.322;2022-08-18T02:14:16;21.80;99.90
22781;DHT22;11557;50.884;4.322;2022-08-18T02:16:42;21.80;99.90
22781;DHT22;11557;50.884;4.322;2022-08-18T02:19:08;21.80;99.90
22781;DHT22;11557;50.884;4.322;2022-08-18T02:21:33;21.60;99.90
22781;DHT22;11557;50.884;4.322;2022-08-18T02:23:59;21.40;99.90
22781;DHT22;11557;50.884;4.322;2022-08-18T02:26:25;21.50;99.90
22781;DHT22;11557;50.884;4.322;2022-08-18T02:28:51;21.50;99.90
22781;DHT22;11557;50.884;4.322;2022-08-18T02:31:21;21.60;99.90
22781;DHT22;11557;50.884;4.322;2022-08-18T02:34:02;21.50;99.90
22781;DHT22;11557;50.884;4.322;2022-08-18T02:36:27;21.40;99.90
22781;DHT22;11557;50.884;4.322;2022-08-18T02:38:54;21.30;99.90
22781;DHT22;11557;50.884;4.322;2022-08-18T02:41:39;21.30;99.90
22781;DHT22;11557;50.884;4.322;2022-08-18T02:44:14;21.30;99.90
22781;DHT22;11557;50.884;4.322;2022-08-18T02:46:39;21.30;99.90
22781;DHT22;11557;50.884;4.322;2022-08-18T02:49:07;21.40;99.90
22781;DHT22;11557;50.884;4.322;2022-08-18T02:51:32;21.40;99.90
22781;DHT22;11557;50.884;4.322;2022-08-18T02:53:58;21.40;99.90
22781;DHT22;11557;50.884;4.322;2022-08-18T02:56:26;21.40;99.90
22781;DHT22;11557;50.884;4.322;2022-08-18T02:59:06;21.30;99.90
22781;DHT22;11557;50.884;4.322;2022-08-18T03:01:35;21.20;99.90
22781;DHT22;11557;50.884;4.322;2022-08-18T03:04:08;21.10;99.90
22781;DHT22;11557;50.884;4.322;2022-08-18T03:06:56;21.00;99.90
22781;DHT22;11557;50.884;4.322;2022-08-18T03:09:24;20.80;99.90
22781;DHT22;11557;50.884;4.322;2022-08-18T03:11:50;20.90;99.90
22781;DHT22;11557;50.884;4.322;2022-08-18T03:14:18;20.90;99.90
22781;DHT22;11557;50.884;4.322;2022-08-18T03:16:45;21.10;99.90
22781;DHT22;11557;50.884;4.322;2022-08-18T03:19:14;21.10;99.90
22781;DHT22;11557;50.884;4.322;2022-08-18T03:21:46;21.10;99.90
22781;DHT22;11557;50.884;4.322;2022-08-18T03:24:14;21.10;99.90
22781;DHT22;11557;50.884;4.322;2022-08-18T03:26:43;21.00;99.90
22781;DHT22;11557;50.884;4.322;2022-08-18T03:29:12;20.80;99.90
22781;DHT22;11557;50.884;4.322;2022-08-18T03:31:42;20.70;99.90
22781;DHT22;11557;50.884;4.322;2022-08-18T03:34:31;20.50;99.90
22781;DHT22;11557;50.884;4.322;2022-08-18T03:36:57;20.40;99.90
22781;DHT22;11557;50.884;4.322;2022-08-18T03:39:41;20.60;99.90
22781;DHT22;11557;50.884;4.322;2022-08-18T03:42:26;20.70;99.90
22781;DHT22;11557;50.884;4.322;2022-08-18T03:44:57;20.40;99.90
22781;DHT22;11557;50.884;4.322;2022-08-18T03:47:26;20.40;99.90
22781;DHT22;11557;50.884;4.322;2022-08-18T03:49:54;20.40;99.90
22781;DHT22;11557;50.884;4.322;2022-08-18T03:52:19;20.60;99.90
22781;DHT22;11557;50.884;4.322;2022-08-18T03:54:45;20.80;99.90
22781;DHT22;11557;50.884;4.322;2022-08-18T03:57:11;20.90;99.90
22781;DHT22;11557;50.884;4.322;2022-08-18T03:59:39;21.00;99.90
22781;DHT22;11557;50.884;4.322;2022-08-18T04:02:10;21.10;99.90
22781;DHT22;11557;50.884;4.322;2022-08-18T04:04:55;21.20;99.90
22781;DHT22;11557;50.884;4.322;2022-08-18T04:07:21;21.10;99.90
22781;DHT22;11557;50.884;4.322;2022-08-18T04:09:48;21.20;99.90
22781;DHT22;11557;50.884;4.322;2022-08-18T04:12:15;21.20;99.90
22781;DHT22;11557;50.884;4.322;2022-08-18T04:14:49;21.30;99.90
22781;DHT22;11557;50.884;4.322;2022-08-18T04:17:20;21.40;99.90
22781;DHT22;11557;50.884;4.322;2022-08-18T04:19:51;21.30;99.90
22781;DHT22;11557;50.884;4.322;2022-08-18T04:22:18;21.40;99.90
22781;DHT22;11557;50.884;4.322;2022-08-18T04:24:48;21.40;99.90
22781;DHT22;11557;50.884;4.322;2022-08-18T04:27:15;21.30;99.90
22781;DHT22;11557;50.884;4.322;2022-08-18T04:29:41;21.30;99.90
22781;DHT22;11557;50.884;4.322;2022-08-18T04:32:13;21.30;99.90
22781;DHT22;11557;50.884;4.322;2022-08-18T04:34:45;21.30;99.90
22781;DHT22;11557;50.884;4.322;2022-08-18T04:37:18;21.20;99.90
22781;DHT22;11557;50.884;4.322;2022-08-18T04:39:43;21.20;99.90
22781;DHT22;11557;50.884;4.322;2022-08-18T04:42:10;21.20;99.90
22781;DHT22;11557;50.884;4.322;2022-08-18T04:44:36;21.10;99.90
22781;DHT22;11557;50.884;4.322;2022-08-18T04:47:04;21.00;99.90
22781;DHT22;11557;50.884;4.322;2022-08-18T04:49:32;20.90;99.90
22781;DHT22;11557;50.884;4.322;2022-08-18T04:51:58;20.90;99.90
22781;DHT22;11557;50.884;4.322;2022-08-18T04:54:43;20.80;99.90
22781;DHT22;11557;50.884;4.322;2022-08-18T04:57:14;20.80;99.90
22781;DHT22;11557;50.884;4.322;2022-08-18T04:59:48;20.90;99.90
22781;DHT22;11557;50.884;4.322;2022-08-18T05:02:15;20.90;99.90
22781;DHT22;11557;50.884;4.322;2022-08-18T05:04:42;20.90;99.90
22781;DHT22;11557;50.884;4.322;2022-08-18T05:07:15;20.90;99.90
22781;DHT22;11557;50.884;4.322;2022-08-18T05:09:42;21.00;99.90
22781;DHT22;11557;50.884;4.322;2022-08-18T05:12:15;20.90;99.90
22781;DHT22;11557;50.884;4.322;2022-08-18T05:14:43;20.80;99.90
22781;DHT22;11557;50.884;4.322;2022-08-18T05:17:10;20.90;99.90
22781;DHT22;11557;50.884;4.322;2022-08-18T05:19:40;20.80;99.90
22781;DHT22;11557;50.884;4.322;2022-08-18T05:22:09;20.90;99.90
22781;DHT22;11557;50.884;4.322;2022-08-18T05:24:36;20.90;99.90
22781;DHT22;11557;50.884;4.322;2022-08-18T05:27:03;20.90;99.90
22781;DHT22;11557;50.884;4.322;2022-08-18T05:29:30;21.20;99.90
22781;DHT22;11557;50.884;4.322;2022-08-18T05:32:19;21.10;99.90
22781;DHT22;11557;50.884;4.322;2022-08-18T05:34:45;21.00;99.90
22781;DHT22;11557;50.884;4.322;2022-08-18T05:37:35;21.00;99.90
22781;DHT22;11557;50.884;4.322;2022-08-18T05:40:07;21.10;99.90
22781;DHT22;11557;50.884;4.322;2022-08-18T05:42:37;21.10;99.90
22781;DHT22;11557;50.884;4.322;2022-08-18T05:45:11;21.00;99.90
22781;DHT22;11557;50.884;4.322;2022-08-18T05:47:37;21.00;99.90
22781;DHT22;11557;50.884;4.322;2022-08-18T05:50:09;21.00;99.90
22781;DHT22;11557;50.884;4.322;2022-08-18T05:53:08;21.00;99.90
22781;DHT22;11557;50.884;4.322;2022-08-18T05:56:12;21.10;99.90
22781;DHT22;11557;50.884;4.322;2022-08-18T05:58:58;20.90;99.90
22781;DHT22;11557;50.884;4.322;2022-08-18T06:01:32;21.10;99.90
22781;DHT22;11557;50.884;4.322;2022-08-18T06:04:13;21.20;99.90
22781;DHT22;11557;50.884;4.322;2022-08-18T06:06:42;21.30;99.90
22781;DHT22;11557;50.884;4.322;2022-08-18T06:09:23;21.30;99.90
22781;DHT22;11557;50.884;4.322;2022-08-18T06:11:53;21.30;99.90
22781;DHT22;11557;50.884;4.322;2022-08-18T06:14:22;21.60;99.90
22781;DHT22;11557;50.884;4.322;2022-08-18T06:17:10;21.60;99.90
22781;DHT22;11557;50.884;4.322;2022-08-18T06:22:58;21.80;99.90
22781;DHT22;11557;50.884;4.322;2022-08-18T06:26:06;21.80;99.90
22781;DHT22;11557;50.884;4.322;2022-08-18T06:34:24;22.40;99.90
22781;DHT22;11557;50.884;4.322;2022-08-18T06:39:48;22.60;99.90
22781;DHT22;11557;50.884;4.322;2022-08-18T06:42:26;22.70;99.90
22781;DHT22;11557;50.884;4.322;2022-08-18T06:45:15;22.80;99.90
22781;DHT22;11557;50.884;4.322;2022-08-18T06:48:36;22.70;99.90
22781;DHT22;11557;50.884;4.322;2022-08-18T06:51:20;22.80;99.90
22781;DHT22;11557;50.884;4.322;2022-08-18T06:53:56;22.90;99.90
22781;DHT22;11557;50.884;4.322;2022-08-18T06:58:52;23.00;99.90
22781;DHT22;11557;50.884;4.322;2022-08-18T07:01:21;23.10;99.90
22781;DHT22;11557;50.884;4.322;2022-08-18T07:03:53;23.30;99.90
22781;DHT22;11557;50.884;4.322;2022-08-18T07:06:26;23.50;99.90
22781;DHT22;11557;50.884;4.322;2022-08-18T07:08:55;23.60;99.90
22781;DHT22;11557;50.884;4.322;2022-08-18T07:11:40;23.80;99.90
22781;DHT22;11557;50.884;4.322;2022-08-18T07:14:41;23.80;99.90
22781;DHT22;11557;50.884;4.322;2022-08-18T07:17:10;23.70;99.90
22781;DHT22;11557;50.884;4.322;2022-08-18T07:19:36;23.90;99.90
22781;DHT22;11557;50.884;4.322;2022-08-18T07:22:07;24.10;99.90
22781;DHT22;11557;50.884;4.322;2022-08-18T07:24:45;24.40;99.90
22781;DHT22;11557;50.884;4.322;2022-08-18T07:27:14;24.50;99.90
22781;DHT22;11557;50.884;4.322;2022-08-18T07:35:21;24.70;99.90
22781;DHT22;11557;50.884;4.322;2022-08-18T07:37:57;24.70;99.90
22781;DHT22;11557;50.884;4.322;2022-08-18T07:40:35;24.70;99.90
22781;DHT22;11557;50.884;4.322;2022-08-18T07:48:20;25.00;99.90
22781;DHT22;11557;50.884;4.322;2022-08-18T07:59:20;25.20;99.90
22781;DHT22;11557;50.884;4.322;2022-08-18T08:02:16;25.30;99.90
22781;DHT22;11557;50.884;4.322;2022-08-18T08:07:56;25.50;99.90
22781;DHT22;11557;50.884;4.322;2022-08-18T08:10:35;25.60;99.90
22781;DHT22;11557;50.884;4.322;2022-08-18T08:13:26;25.80;99.90
22781;DHT22;11557;50.884;4.322;2022-08-18T08:21:16;26.60;99.90
22781;DHT22;11557;50.884;4.322;2022-08-18T08:24:07;29.10;99.90
22781;DHT22;11557;50.884;4.322;2022-08-18T08:31:57;33.50;99.90
22781;DHT22;11557;50.884;4.322;2022-08-18T08:34:44;35.00;99.90
22781;DHT22;11557;50.884;4.322;2022-08-18T08:37:23;35.40;99.90
22781;DHT22;11557;50.884;4.322;2022-08-18T08:40:06;34.80;99.90
22781;DHT22;11557;50.884;4.322;2022-08-18T08:42:38;34.10;99.90
22781;DHT22;11557;50.884;4.322;2022-08-18T08:45:12;34.80;99.90
22781;DHT22;11557;50.884;4.322;2022-08-18T08:50:18;34.80;99.90
22781;DHT22;11557;50.884;4.322;2022-08-18T08:53:09;34.40;99.90
22781;DHT22;11557;50.884;4.322;2022-08-18T08:55:45;33.60;99.90
22781;DHT22;11557;50.884;4.322;2022-08-18T08:58:42;32.70;99.90
22781;DHT22;11557;50.884;4.322;2022-08-18T09:01:18;32.80;99.90
22781;DHT22;11557;50.884;4.322;2022-08-18T09:04:18;32.30;99.90
22781;DHT22;11557;50.884;4.322;2022-08-18T09:07:02;31.60;99.90
22781;DHT22;11557;50.884;4.322;2022-08-18T09:12:32;30.30;99.90
22781;DHT22;11557;50.884;4.322;2022-08-18T09:20:55;28.80;99.90
22781;DHT22;11557;50.884;4.322;2022-08-18T09:23:43;29.80;99.90
22781;DHT22;11557;50.884;4.322;2022-08-18T09:26:37;31.70;99.90
22781;DHT22;11557;50.884;4.322;2022-08-18T09:29:48;33.60;99.90
22781;DHT22;11557;50.884;4.322;2022-08-18T09:38:18;36.20;99.90
22781;DHT22;11557;50.884;4.322;2022-08-18T09:41:15;34.80;99.90
22781;DHT22;11557;50.884;4.322;2022-08-18T09:44:01;33.60;99.90
22781;DHT22;11557;50.884;4.322;2022-08-18T09:46:51;32.10;99.90
22781;DHT22;11557;50.884;4.322;2022-08-18T09:54:59;30.80;99.90
22781;DHT22;11557;50.884;4.322;2022-08-18T09:57:29;30.90;99.90
22781;DHT22;11557;50.884;4.322;2022-08-18T10:10:35;35.70;99.90
22781;DHT22;11557;50.884;4.322;2022-08-18T10:16:06;36.10;99.90
22781;DHT22;11557;50.884;4.322;2022-08-18T10:18:48;36.00;99.90
22781;DHT22;11557;50.884;4.322;2022-08-18T10:21:23;35.40;99.90
22781;DHT22;11557;50.884;4.322;2022-08-18T10:29:03;32.70;99.90
22781;DHT22;11557;50.884;4.322;2022-08-18T10:31:31;32.70;99.90
22781;DHT22;11557;50.884;4.322;2022-08-18T10:34:46;32.60;99.90
22781;DHT22;11557;50.884;4.322;2022-08-18T10:39:55;30.70;99.90
22781;DHT22;11557;50.884;4.322;2022-08-18T10:42:34;30.30;99.90
22781;DHT22;11557;50.884;4.322;2022-08-18T10:45:12;29.90;99.90
22781;DHT22;11557;50.884;4.322;2022-08-18T10:47:39;29.70;99.90
22781;DHT22;11557;50.884;4.322;2022-08-18T10:50:19;29.60;99.90
22781;DHT22;11557;50.884;4.322;2022-08-18T10:53:01;29.10;99.90
22781;DHT22;11557;50.884;4.322;2022-08-18T10:58:44;28.20;99.90
22781;DHT22;11557;50.884;4.322;2022-08-18T11:01:34;28.30;99.90
22781;DHT22;11557;50.884;4.322;2022-08-18T11:04:05;28.90;99.90
22781;DHT22;11557;50.884;4.322;2022-08-18T11:06:39;29.50;99.90
22781;DHT22;11557;50.884;4.322;2022-08-18T11:09:07;30.00;99.90
22781;DHT22;11557;50.884;4.322;2022-08-18T11:11:37;30.50;99.90
22781;DHT22;11557;50.884;4.322;2022-08-18T11:14:10;31.10;99.90
22781;DHT22;11557;50.884;4.322;2022-08-18T11:19:13;31.20;99.90
22781;DHT22;11557;50.884;4.322;2022-08-18T11:21:45;31.10;99.90
22781;DHT22;11557;50.884;4.322;2022-08-18T11:24:15;30.60;99.90
22781;DHT22;11557;50.884;4.322;2022-08-18T11:26:50;30.20;99.90
22781;DHT22;11557;50.884;4.322;2022-08-18T11:29:23;30.10;99.90
22781;DHT22;11557;50.884;4.322;2022-08-18T11:31:54;30.10;99.90
22781;DHT22;11557;50.884;4.322;2022-08-18T11:34:37;30.30;99.90
22781;DHT22;11557;50.884;4.322;2022-08-18T11:37:07;30.80;99.90
22781;DHT22;11557;50.884;4.322;2022-08-18T11:39:42;31.30;99.90
22781;DHT22;11557;50.884;4.322;2022-08-18T11:42:14;31.50;99.90
22781;DHT22;11557;50.884;4.322;2022-08-18T11:44:41;31.10;99.90
22781;DHT22;11557;50.884;4.322;2022-08-18T11:47:14;30.80;99.90
22781;DHT22;11557;50.884;4.322;2022-08-18T11:49:51;30.20;99.90
22781;DHT22;11557;50.884;4.322;2022-08-18T11:52:26;29.90;99.90
22781;DHT22;11557;50.884;4.322;2022-08-18T11:54:59;29.60;99.90
22781;DHT22;11557;50.884;4.322;2022-08-18T11:57:36;29.60;99.90
22781;DHT22;11557;50.884;4.322;2022-08-18T12:00:40;29.20;99.90
22781;DHT22;11557;50.884;4.322;2022-08-18T12:05:52;29.20;99.90
22781;DHT22;11557;50.884;4.322;2022-08-18T12:08:21;29.20;99.90
22781;DHT22;11557;50.884;4.322;2022-08-18T12:10:48;29.40;99.90
22781;DHT22;11557;50.884;4.322;2022-08-18T12:13:24;29.20;99.90
22781;DHT22;11557;50.884;4.322;2022-08-18T12:16:29;29.40;99.90
22781;DHT22;11557;50.884;4.322;2022-08-18T12:18:55;29.60;99.90
22781;DHT22;11557;50.884;4.322;2022-08-18T12:21:21;29.80;99.90
22781;DHT22;11557;50.884;4.322;2022-08-18T12:23:47;29.80;99.90
22781;DHT22;11557;50.884;4.322;2022-08-18T12:26:14;29.80;99.90
22781;DHT22;11557;50.884;4.322;2022-08-18T12:28:40;29.80;99.90
22781;DHT22;11557;50.884;4.322;2022-08-18T12:31:06;29.60;99.90
22781;DHT22;11557;50.884;4.322;2022-08-18T12:33:33;29.70;99.90
22781;DHT22;11557;50.884;4.322;2022-08-18T12:36:00;29.80;99.90
22781;DHT22;11557;50.884;4.322;2022-08-18T12:38:26;29.90;99.90
22781;DHT22;11557;50.884;4.322;2022-08-18T12:40:52;29.40;99.90
22781;DHT22;11557;50.884;4.322;2022-08-18T12:43:18;29.30;99.90
22781;DHT22;11557;50.884;4.322;2022-08-18T12:45:44;29.60;99.90
22781;DHT22;11557;50.884;4.322;2022-08-18T12:48:11;30.00;99.90
22781;DHT22;11557;50.884;4.322;2022-08-18T12:50:37;30.20;99.90
22781;DHT22;11557;50.884;4.322;2022-08-18T12:53:03;30.50;99.90
22781;DHT22;11557;50.884;4.322;2022-08-18T12:55:39;30.90;99.90
22781;DHT22;11557;50.884;4.322;2022-08-18T12:58:05;31.00;99.90
22781;DHT22;11557;50.884;4.322;2022-08-18T13:00:32;30.80;99.90
22781;DHT22;11557;50.884;4.322;2022-08-18T13:03:00;30.80;99.90
22781;DHT22;11557;50.884;4.322;2022-08-18T13:05:26;30.00;99.90
22781;DHT22;11557;50.884;4.322;2022-08-18T13:07:53;30.40;99.90
22781;DHT22;11557;50.884;4.322;2022-08-18T13:10:28;30.20;99.90
22781;DHT22;11557;50.884;4.322;2022-08-18T13:12:56;29.80;99.90
22781;DHT22;11557;50.884;4.322;2022-08-18T13:15:23;29.30;99.90
22781;DHT22;11557;50.884;4.322;2022-08-18T13:17:49;29.30;99.90
22781;DHT22;11557;50.884;4.322;2022-08-18T13:23:01;29.10;99.90
22781;DHT22;11557;50.884;4.322;2022-08-18T13:25:26;28.90;99.90
22781;DHT22;11557;50.884;4.322;2022-08-18T13:27:52;29.00;99.90
22781;DHT22;11557;50.884;4.322;2022-08-18T13:30:20;29.10;99.90
22781;DHT22;11557;50.884;4.322;2022-08-18T13:32:46;29.30;99.90
22781;DHT22;11557;50.884;4.322;2022-08-18T13:35:12;29.50;99.90
22781;DHT22;11557;50.884;4.322;2022-08-18T13:37:41;29.40;99.90
22781;DHT22;11557;50.884;4.322;2022-08-18T13:40:08;29.20;99.90
22781;DHT22;11557;50.884;4.322;2022-08-18T13:42:47;29.30;99.90
22781;DHT22;11557;50.884;4.322;2022-08-18T13:45:19;29.40;99.90
22781;DHT22;11557;50.884;4.322;2022-08-18T13:47:46;29.20;99.90
22781;DHT22;11557;50.884;4.322;2022-08-18T13:50:12;29.30;99.90
22781;DHT22;11557;50.884;4.322;2022-08-18T13:52:39;29.60;99.90
22781;DHT22;11557;50.884;4.322;2022-08-18T13:55:10;29.50;99.90
22781;DHT22;11557;50.884;4.322;2022-08-18T13:57:38;29.70;99.90
22781;DHT22;11557;50.884;4.322;2022-08-18T14:00:06;29.90;99.90
22781;DHT22;11557;50.884;4.322;2022-08-18T14:02:36;30.20;99.90
22781;DHT22;11557;50.884;4.322;2022-08-18T14:05:01;30.00;99.90
22781;DHT22;11557;50.884;4.322;2022-08-18T14:07:27;30.10;99.90
22781;DHT22;11557;50.884;4.322;2022-08-18T14:09:54;30.10;99.90
22781;DHT22;11557;50.884;4.322;2022-08-18T14:12:21;30.00;99.90
22781;DHT22;11557;50.884;4.322;2022-08-18T14:14:48;29.40;99.90
22781;DHT22;11557;50.884;4.322;2022-08-18T14:17:14;29.50;99.90
22781;DHT22;11557;50.884;4.322;2022-08-18T14:19:40;29.60;99.90
22781;DHT22;11557;50.884;4.322;2022-08-18T14:22:24;29.90;99.90
22781;DHT22;11557;50.884;4.322;2022-08-18T14:25:09;30.30;99.90
22781;DHT22;11557;50.884;4.322;2022-08-18T14:27:53;30.60;99.90
22781;DHT22;11557;50.884;4.322;2022-08-18T14:30:19;30.70;99.90
22781;DHT22;11557;50.884;4.322;2022-08-18T14:32:45;30.40;99.90
22781;DHT22;11557;50.884;4.322;2022-08-18T14:35:12;29.80;99.90
22781;DHT22;11557;50.884;4.322;2022-08-18T14:37:38;29.80;99.90
22781;DHT22;11557;50.884;4.322;2022-08-18T14:40:06;29.50;99.90
22781;DHT22;11557;50.884;4.322;2022-08-18T14:42:32;29.50;99.90
22781;DHT22;11557;50.884;4.322;2022-08-18T14:44:58;29.30;99.90
22781;DHT22;11557;50.884;4.322;2022-08-18T14:47:24;29.10;99.90
22781;DHT22;11557;50.884;4.322;2022-08-18T14:49:55;29.30;99.90
22781;DHT22;11557;50.884;4.322;2022-08-18T14:52:23;29.60;99.90
22781;DHT22;11557;50.884;4.322;2022-08-18T14:54:50;29.60;99.90
22781;DHT22;11557;50.884;4.322;2022-08-18T14:57:16;29.90;99.90
22781;DHT22;11557;50.884;4.322;2022-08-18T14:59:45;29.80;99.90
22781;DHT22;11557;50.884;4.322;2022-08-18T15:02:12;29.40;99.90
22781;DHT22;11557;50.884;4.322;2022-08-18T15:04:38;29.40;99.90
22781;DHT22;11557;50.884;4.322;2022-08-18T15:07:04;29.40;99.90
22781;DHT22;11557;50.884;4.322;2022-08-18T15:09:37;29.40;99.90
22781;DHT22;11557;50.884;4.322;2022-08-18T15:12:03;29.40;99.90
22781;DHT22;11557;50.884;4.322;2022-08-18T15:14:31;29.30;99.90
22781;DHT22;11557;50.884;4.322;2022-08-18T15:16:57;29.10;99.90
22781;DHT22;11557;50.884;4.322;2022-08-18T15:19:24;29.40;99.90
22781;DHT22;11557;50.884;4.322;2022-08-18T15:21:50;29.40;99.90
22781;DHT22;11557;50.884;4.322;2022-08-18T15:24:39;29.80;99.90
22781;DHT22;11557;50.884;4.322;2022-08-18T15:27:29;30.10;99.90
22781;DHT22;11557;50.884;4.322;2022-08-18T15:29:56;30.20;99.90
22781;DHT22;11557;50.884;4.322;2022-08-18T15:32:22;29.50;99.90
22781;DHT22;11557;50.884;4.322;2022-08-18T15:34:49;29.40;99.90
22781;DHT22;11557;50.884;4.322;2022-08-18T15:37:15;29.60;99.90
22781;DHT22;11557;50.884;4.322;2022-08-18T15:39:41;29.60;99.90
22781;DHT22;11557;50.884;4.322;2022-08-18T15:42:11;29.70;99.90
22781;DHT22;11557;50.884;4.322;2022-08-18T15:44:37;29.60;99.90
22781;DHT22;11557;50.884;4.322;2022-08-18T15:47:02;29.60;99.90
22781;DHT22;11557;50.884;4.322;2022-08-18T15:49:29;29.90;99.90
22781;DHT22;11557;50.884;4.322;2022-08-18T15:51:55;29.90;99.90
22781;DHT22;11557;50.884;4.322;2022-08-18T15:54:20;29.70;99.90
22781;DHT22;11557;50.884;4.322;2022-08-18T15:56:47;29.60;99.90
22781;DHT22;11557;50.884;4.322;2022-08-18T15:59:12;29.40;99.90
22781;DHT22;11557;50.884;4.322;2022-08-18T16:01:38;29.30;99.90
22781;DHT22;11557;50.884;4.322;2022-08-18T16:04:05;29.30;99.90
22781;DHT22;11557;50.884;4.322;2022-08-18T16:06:32;29.40;99.90
22781;DHT22;11557;50.884;4.322;2022-08-18T16:09:00;29.50;99.90
22781;DHT22;11557;50.884;4.322;2022-08-18T16:11:27;28.90;99.90
22781;DHT22;11557;50.884;4.322;2022-08-18T16:13:52;28.70;99.90
22781;DHT22;11557;50.884;4.322;2022-08-18T16:16:20;28.40;99.90
22781;DHT22;11557;50.884;4.322;2022-08-18T16:18:47;28.70;99.90
22781;DHT22;11557;50.884;4.322;2022-08-18T16:21:19;28.80;99.90
22781;DHT22;11557;50.884;4.322;2022-08-18T16:23:47;28.80;99.90
22781;DHT22;11557;50.884;4.322;2022-08-18T16:26:14;28.70;99.90
22781;DHT22;11557;50.884;4.322;2022-08-18T16:28:42;28.50;99.90
22781;DHT22;11557;50.884;4.322;2022-08-18T16:31:08;28.70;99.90
22781;DHT22;11557;50.884;4.322;2022-08-18T16:33:34;28.80;99.90
22781;DHT22;11557;50.884;4.322;2022-08-18T16:36:04;28.70;99.90
22781;DHT22;11557;50.884;4.322;2022-08-18T16:38:32;28.70;99.90
22781;DHT22;11557;50.884;4.322;2022-08-18T16:41:09;28.50;99.90
22781;DHT22;11557;50.884;4.322;2022-08-18T16:43:36;28.00;99.90
22781;DHT22;11557;50.884;4.322;2022-08-18T16:46:03;27.90;99.90
22781;DHT22;11557;50.884;4.322;2022-08-18T16:48:33;27.60;99.90
22781;DHT22;11557;50.884;4.322;2022-08-18T16:50:59;27.70;99.90
22781;DHT22;11557;50.884;4.322;2022-08-18T16:53:24;27.80;99.90
22781;DHT22;11557;50.884;4.322;2022-08-18T16:55:52;27.80;99.90
22781;DHT22;11557;50.884;4.322;2022-08-18T16:58:18;27.80;99.90
22781;DHT22;11557;50.884;4.322;2022-08-18T17:01:02;27.80;99.90
22781;DHT22;11557;50.884;4.322;2022-08-18T17:03:46;27.60;99.90
22781;DHT22;11557;50.884;4.322;2022-08-18T17:06:30;27.50;99.90
22781;DHT22;11557;50.884;4.322;2022-08-18T17:08:57;27.70;99.90
22781;DHT22;11557;50.884;4.322;2022-08-18T17:11:25;27.70;99.90
22781;DHT22;11557;50.884;4.322;2022-08-18T17:13:56;27.70;99.90
22781;DHT22;11557;50.884;4.322;2022-08-18T17:16:24;27.80;99.90
22781;DHT22;11557;50.884;4.322;2022-08-18T17:18:51;27.80;99.90
22781;DHT22;11557;50.884;4.322;2022-08-18T17:21:21;27.60;99.90
22781;DHT22;11557;50.884;4.322;2022-08-18T17:23:48;27.70;99.90
22781;DHT22;11557;50.884;4.322;2022-08-18T17:29:55;27.60;99.90
22781;DHT22;11557;50.884;4.322;2022-08-18T17:32:13;27.50;99.90
22781;DHT22;11557;50.884;4.322;2022-08-18T17:34:45;27.40;99.90
22781;DHT22;11557;50.884;4.322;2022-08-18T17:37:15;27.50;99.90
22781;DHT22;11557;50.884;4.322;2022-08-18T17:39:58;27.30;99.90
22781;DHT22;11557;50.884;4.322;2022-08-18T17:42:29;27.20;99.90
22781;DHT22;11557;50.884;4.322;2022-08-18T17:45:07;27.30;99.90
22781;DHT22;11557;50.884;4.322;2022-08-18T17:47:50;27.30;99.90
22781;DHT22;11557;50.884;4.322;2022-08-18T17:53:31;26.90;99.90
22781;DHT22;11557;50.884;4.322;2022-08-18T17:56:03;26.90;99.90